Time;durP1;ratioP1;P1;durP2;ratioP2;P2;SDS_P1;SDS_P2;PMS_P1;PMS_P2;Temp;Humidity;BMP_temperature;BMP_pressure;BME280_temperature;BME280_humidity;BME280_pressure;Samples;Min_cycle;Max_cycle;Signal;HPM_P1;HPM_P2
2022/12/14 00:00:47;;;;;;;65.07;27.87;;;;;;;4.34;55.48;100756.41;5072527;28;20127;-72
2022/12/14 00:03:14;;;;;;;47.37;25.07;;;;;;;4.44;55.61;100756.13;5073404;28;20089;-74
2022/12/14 00:05:40;;;;;;;65.37;26.80;;;;;;;4.30;55.81;100741.81;5073367;28;20040;-74
2022/12/14 00:08:06;;;;;;;53.27;27.80;;;;;;;4.25;56.49;100743.41;5073079;28;20032;-75
2022/12/14 00:10:33;;;;;;;53.50;26.33;;;;;;;4.25;55.38;100736.25;5073327;28;20456;-73
2022/12/14 00:12:59;;;;;;;54.47;27.10;;;;;;;4.18;56.23;100740.69;5074199;28;20040;-74
2022/12/14 00:15:24;;;;;;;58.37;28.90;;;;;;;4.47;55.70;100742.44;5067509;28;20611;-74
2022/12/14 00:17:50;;;;;;;61.47;27.83;;;;;;;4.36;55.61;100735.75;5053090;28;20043;-73
2022/12/14 00:20:15;;;;;;;51.67;27.10;;;;;;;4.46;55.36;100730.97;5053467;28;20049;-73
2022/12/14 00:22:41;;;;;;;50.17;25.53;;;;;;;4.42;55.46;100728.88;5052256;28;20425;-73
2022/12/14 00:25:07;;;;;;;53.03;27.00;;;;;;;4.24;55.92;100733.78;5053563;28;20108;-74
2022/12/14 00:27:33;;;;;;;55.70;26.13;;;;;;;4.38;55.38;100730.28;5053077;28;20060;-74
2022/12/14 00:29:58;;;;;;;47.87;26.73;;;;;;;4.34;55.30;100731.66;5053076;28;20495;-75
2022/12/14 00:32:24;;;;;;;58.37;26.67;;;;;;;4.28;55.56;100735.06;5055500;28;20040;-74
2022/12/14 00:34:49;;;;;;;51.83;25.40;;;;;;;4.23;56.37;100724.97;5053293;28;20074;-74
2022/12/14 00:37:15;;;;;;;43.00;24.50;;;;;;;4.21;55.73;100726.16;5053209;28;20040;-74
2022/12/14 00:39:40;;;;;;;46.97;25.00;;;;;;;4.32;55.22;100726.50;5053303;28;20052;-74
2022/12/14 00:42:06;;;;;;;50.57;25.67;;;;;;;4.25;56.16;100725.63;5052883;28;20469;-74
2022/12/14 00:44:32;;;;;;;50.83;26.70;;;;;;;4.16;55.46;100720.59;5052768;28;20059;-74
2022/12/14 00:46:57;;;;;;;49.30;25.97;;;;;;;4.13;55.68;100719.13;5052762;28;20491;-74
2022/12/14 00:49:23;;;;;;;45.93;24.70;;;;;;;4.10;55.57;100714.19;5053631;28;20060;-74
2022/12/14 00:51:48;;;;;;;48.83;24.90;;;;;;;4.12;55.25;100717.50;5053644;28;20121;-75
2022/12/14 00:54:13;;;;;;;49.47;25.60;;;;;;;4.06;55.26;100717.41;5053368;28;20366;-73
2022/12/14 00:56:39;;;;;;;49.00;25.30;;;;;;;4.00;55.47;100707.50;5053138;28;20033;-74
2022/12/14 00:59:05;;;;;;;55.97;25.40;;;;;;;4.01;55.48;100709.97;5053392;28;20041;-74
2022/12/14 01:01:30;;;;;;;44.17;24.30;;;;;;;3.99;55.12;100698.72;5052683;28;20025;-73
2022/12/14 01:04:15;;;;;;;50.67;23.90;;;;;;;3.91;55.55;100698.00;5053674;28;20147;-75
2022/12/14 01:06:42;;;;;;;51.13;24.87;;;;;;;3.85;54.87;100688.13;5052884;28;20029;-75
2022/12/14 01:09:07;;;;;;;47.23;24.27;;;;;;;3.69;56.23;100691.78;5068481;28;20059;-73
2022/12/14 01:11:33;;;;;;;52.87;23.63;;;;;;;3.77;54.94;100689.03;5052837;28;20076;-75
2022/12/14 01:13:58;;;;;;;48.13;23.10;;;;;;;3.73;55.31;100685.09;5053262;28;20120;-74
2022/12/14 01:16:24;;;;;;;42.57;22.47;;;;;;;3.68;55.51;100684.00;5065751;28;20040;-74
2022/12/14 01:18:49;;;;;;;49.10;23.97;;;;;;;3.49;56.54;100680.06;5077780;28;20542;-75
2022/12/14 01:21:18;;;;;;;47.23;24.57;;;;;;;3.44;55.95;100671.81;5077031;28;20064;-74
2022/12/14 01:23:45;;;;;;;56.67;24.80;;;;;;;3.33;56.11;100675.75;5076620;28;20496;-74
2022/12/14 01:26:12;;;;;;;49.00;23.33;;;;;;;3.29;55.86;100674.47;5076909;28;20044;-75
2022/12/14 01:28:39;;;;;;;51.87;22.57;;;;;;;3.32;55.92;100679.41;5073328;28;20041;-75
2022/12/14 01:31:09;;;;;;;49.63;24.20;;;;;;;3.04;57.01;100670.44;5076691;28;20068;-73
2022/12/14 01:33:35;;;;;;;50.33;25.23;;;;;;;3.12;56.31;100672.19;5076028;28;20508;-74
2022/12/14 01:36:05;;;;;;;45.00;22.43;;;;;;;3.22;56.00;100668.22;5076411;28;20029;-73
2022/12/14 01:38:31;;;;;;;46.38;22.20;;;;;;;3.22;55.83;100670.09;5077210;28;20040;-75
2022/12/14 01:40:57;;;;;;;47.50;22.97;;;;;;;3.17;55.64;100667.13;5076902;28;20127;-74
2022/12/14 01:43:23;;;;;;;45.73;24.13;;;;;;;3.12;55.39;100661.56;5076605;28;20115;-75
2022/12/14 01:45:48;;;;;;;51.10;24.17;;;;;;;3.03;55.78;100663.44;5076910;28;20042;-75
2022/12/14 01:48:14;;;;;;;47.83;24.00;;;;;;;2.90;55.82;100660.59;5076126;28;20089;-74
2022/12/14 01:50:44;;;;;;;45.87;24.00;;;;;;;2.78;56.19;100659.38;5076740;28;20033;-74
2022/12/14 01:53:19;;;;;;;59.13;23.95;;;;;;;2.90;56.16;100655.28;5076818;28;20033;-74
2022/12/14 01:55:51;;;;;;;53.63;23.63;;;;;;;2.91;55.88;100654.28;5076433;28;20047;-74
2022/12/14 01:58:23;;;;;;;47.47;23.47;;;;;;;2.90;56.07;100651.81;5077057;28;20032;-74
2022/12/14 02:00:57;;;;;;;46.30;22.47;;;;;;;2.82;55.71;100644.75;5076438;28;20457;-74
2022/12/14 02:03:29;;;;;;;44.67;23.67;;;;;;;2.78;56.00;100643.47;5076539;28;20532;-74
2022/12/14 02:06:09;;;;;;;46.90;21.27;;;;;;;2.76;55.62;100634.03;5076786;28;20032;-73
2022/12/14 02:08:38;;;;;;;48.33;23.23;;;;;;;2.68;55.91;100641.06;5076504;28;20053;-75
2022/12/14 02:11:03;;;;;;;44.77;22.63;;;;;;;2.58;56.35;100640.50;5076521;28;20417;-74
2022/12/14 02:13:32;;;;;;;49.90;23.77;;;;;;;2.61;55.96;100639.31;5075188;28;20154;-74
2022/12/14 02:15:57;;;;;;;47.20;22.83;;;;;;;2.59;55.61;100626.22;5068066;28;20033;-74
2022/12/14 02:18:29;;;;;;;45.97;21.87;;;;;;;2.59;55.67;100636.00;5055991;28;20125;-74
2022/12/14 02:21:06;;;;;;;42.47;23.17;;;;;;;2.51;56.00;100636.09;5056178;28;20102;-74
2022/12/14 02:23:53;;;;;;;48.13;22.80;;;;;;;2.54;55.61;100635.72;5056184;28;20040;-75
2022/12/14 02:26:56;;;;;;;46.00;21.67;;;;;;;2.57;55.60;100632.72;5047553;28;20041;-74
2022/12/14 02:29:46;;;;;;;42.90;20.43;;;;;;;2.47;55.30;100632.13;5055786;28;20055;-74
2022/12/14 02:32:21;;;;;;;53.03;21.70;;;;;;;2.50;55.61;100629.09;5060544;28;20045;-74
2022/12/14 02:34:47;;;;;;;43.00;20.67;;;;;;;2.50;55.45;100637.06;5076186;28;20032;-74
2022/12/14 02:37:12;;;;;;;50.77;23.33;;;;;;;2.55;55.03;100635.56;5075279;28;20036;-74
2022/12/14 02:39:53;;;;;;;39.13;20.53;;;;;;;2.58;55.62;100627.22;5075998;28;20086;-75
2022/12/14 02:42:48;;;;;;;43.53;22.00;;;;;;;2.41;55.20;100625.72;5073869;28;20542;-74
2022/12/14 02:45:31;;;;;;;45.63;22.53;;;;;;;2.25;55.78;100619.69;5076009;28;20116;-73
2022/12/14 02:48:05;;;;;;;57.57;21.27;;;;;;;2.19;55.63;100615.09;5075560;28;20036;-75
2022/12/14 02:50:48;;;;;;;39.07;20.87;;;;;;;2.13;55.73;100610.50;5075916;28;20040;-74
2022/12/14 02:53:24;;;;;;;41.60;20.00;;;;;;;2.12;55.81;100609.72;5076040;28;20048;-73
2022/12/14 02:55:56;;;;;;;44.87;21.37;;;;;;;2.00;55.88;100605.81;5075929;28;20460;-73
2022/12/14 02:58:30;;;;;;;48.60;21.63;;;;;;;2.04;55.98;100604.47;5075689;28;20111;-74
2022/12/14 03:00:56;;;;;;;39.30;20.67;;;;;;;2.04;55.68;100596.50;5075100;28;20036;-74
2022/12/14 03:03:22;;;;;;;37.93;20.10;;;;;;;1.97;56.45;100590.25;5075770;28;20028;-75
2022/12/14 03:06:02;;;;;;;40.87;20.80;;;;;;;2.05;56.11;100592.84;5076037;28;20033;-75
2022/12/14 03:08:30;;;;;;;40.00;20.77;;;;;;;2.09;55.83;100593.31;5073162;28;20060;-73
2022/12/14 03:11:03;;;;;;;38.13;20.23;;;;;;;2.17;55.33;100595.91;5074636;28;20404;-73
2022/12/14 03:13:34;;;;;;;43.27;20.40;;;;;;;2.02;55.58;100595.03;5074863;28;20036;-74
2022/12/14 03:16:05;;;;;;;48.80;21.97;;;;;;;2.05;55.45;100592.00;5066688;28;20036;-74
2022/12/14 03:18:59;;;;;;;46.88;22.65;;;;;;;2.05;55.46;100590.19;5054868;28;20095;-74
2022/12/14 03:21:33;;;;;;;48.07;20.80;;;;;;;2.01;55.39;100582.75;5066571;28;20037;-75
2022/12/14 03:24:04;;;;;;;43.47;21.63;;;;;;;1.92;55.20;100581.19;5075476;28;20385;-74
2022/12/14 03:26:36;;;;;;;46.70;21.60;;;;;;;1.92;55.01;100583.84;5075530;28;20041;-74
2022/12/14 03:29:08;;;;;;;39.37;20.07;;;;;;;1.87;55.17;100581.69;5075310;28;20062;-73
2022/12/14 03:31:42;;;;;;;48.17;21.40;;;;;;;1.84;55.05;100574.13;5075268;28;20046;-74
2022/12/14 03:34:11;;;;;;;39.50;19.90;;;;;;;1.81;55.36;100569.16;5075634;28;20036;-73
2022/12/14 03:36:55;;;;;;;45.30;20.77;;;;;;;1.73;55.40;100562.09;5075234;28;20045;-75
2022/12/14 03:39:27;;;;;;;37.47;19.53;;;;;;;1.73;55.32;100564.75;5075254;28;20052;-74
2022/12/14 03:42:29;;;;;;;39.10;20.10;;;;;;;1.72;55.09;100563.09;5074870;28;20051;-74
2022/12/14 03:45:24;;;;;;;43.03;18.93;;;;;;;1.68;55.12;100553.84;5054736;28;20076;-74
2022/12/14 03:47:52;;;;;;;42.17;19.60;;;;;;;1.73;54.88;100553.31;4992602;28;20100;-75
2022/12/14 03:50:32;;;;;;;39.23;19.73;;;;;;;1.58;55.40;100547.13;4992321;28;20107;-74
2022/12/14 03:53:16;;;;;;;46.70;20.23;;;;;;;1.61;54.96;100544.16;4993098;28;20716;-74
2022/12/14 03:55:59;;;;;;;39.60;18.33;;;;;;;1.59;54.82;100538.19;4993270;28;20081;-74
2022/12/14 03:58:52;;;;;;;43.10;19.50;;;;;;;1.55;54.95;100535.06;4991971;28;20387;-73
2022/12/14 04:01:33;;;;;;;43.77;20.03;;;;;;;1.48;55.26;100539.41;4992862;28;20044;-74
2022/12/14 04:04:26;;;;;;;46.78;19.25;;;;;;;1.59;55.12;100532.91;4992563;28;20050;-73
2022/12/14 04:07:01;;;;;;;34.93;17.87;;;;;;;1.49;55.11;100527.84;4993000;28;20423;-75
2022/12/14 04:09:46;;;;;;;36.07;17.67;;;;;;;1.55;54.69;100535.06;4995997;28;20034;-75
2022/12/14 04:21:16;;;;;;;37.93;18.73;;;;;;;1.41;55.23;100525.22;4992523;28;20048;-73
2022/12/14 04:26:39;;;;;;;42.00;19.10;;;;;;;1.46;54.70;100522.03;5073921;28;20043;-75
2022/12/14 04:32:04;;;;;;;41.80;17.27;;;;;;;1.44;54.78;100514.28;5073908;28;20066;-74
2022/12/14 04:34:32;;;;;;;40.63;18.60;;;;;;;1.53;53.86;100513.22;5073854;28;20038;-74
2022/12/14 04:37:03;;;;;;;41.13;17.83;;;;;;;1.53;54.40;100518.50;5074238;28;20443;-74
2022/12/14 04:39:49;;;;;;;;;;;;;;;1.59;54.12;100517.00;5074771;28;20055;-73
2022/12/14 04:42:16;;;;;;;32.80;15.47;;;;;;;1.51;54.04;100512.56;5072616;28;19913;-74
2022/12/14 04:44:54;;;;;;;50.73;20.13;;;;;;;1.46;54.43;100520.22;5073868;28;20036;-75
2022/12/14 04:47:25;;;;;;;40.07;18.20;;;;;;;1.43;54.14;100520.59;5074087;28;20094;-73
2022/12/14 04:50:17;;;;;;;37.77;17.67;;;;;;;1.45;54.45;100515.94;5072951;28;20036;-76
2022/12/14 04:52:49;;;;;;;36.23;17.10;;;;;;;1.47;53.97;100511.31;5072878;28;20535;-74
2022/12/14 04:55:24;;;;;;;40.20;17.63;;;;;;;1.46;54.39;100512.28;5072784;28;20504;-73
2022/12/14 04:57:56;;;;;;;40.13;17.90;;;;;;;1.48;54.66;100514.75;5073156;28;20123;-73
2022/12/14 05:00:22;;;;;;;38.43;17.13;;;;;;;1.43;54.40;100506.53;5073077;28;20439;-74
2022/12/14 05:03:19;;;;;;;40.17;17.23;;;;;;;1.44;54.36;100501.03;5055601;28;20094;-74
2022/12/14 05:05:47;;;;;;;35.27;17.40;;;;;;;1.32;54.65;100497.13;5052595;28;20568;-75
2022/12/14 05:08:16;;;;;;;43.13;17.90;;;;;;;1.29;54.84;100494.03;5051459;28;20120;-76
2022/12/14 05:10:52;;;;;;;43.73;19.20;;;;;;;1.28;54.74;100487.09;5059896;28;20037;-74
2022/12/14 05:13:24;;;;;;;42.83;18.07;;;;;;;1.14;55.61;100488.63;5066253;28;20032;-75
2022/12/14 05:15:52;;;;;;;40.40;17.77;;;;;;;1.24;54.42;100483.16;5065437;28;20033;-74
2022/12/14 05:18:18;;;;;;;42.30;18.43;;;;;;;1.02;55.42;100489.19;5072566;28;20040;-76
2022/12/14 05:20:45;;;;;;;42.33;19.70;;;;;;;1.21;55.35;100494.91;5072030;28;20098;-75
2022/12/14 05:23:11;;;;;;;38.10;19.27;;;;;;;1.35;55.27;100490.69;5073985;28;20033;-76
2022/12/14 05:25:36;;;;;;;44.47;19.03;;;;;;;1.52;54.07;100486.94;5073477;28;20037;-75
2022/12/14 05:28:02;;;;;;;40.93;19.13;;;;;;;1.43;54.69;100486.19;5073918;28;20040;-74
2022/12/14 05:30:27;;;;;;;41.80;19.40;;;;;;;1.32;54.69;100488.38;5073735;28;20045;-75
2022/12/14 05:32:53;;;;;;;42.00;20.23;;;;;;;1.47;54.46;100484.00;5072256;28;20043;-74
2022/12/14 05:35:19;;;;;;;45.80;19.27;;;;;;;1.28;54.94;100477.31;5073347;28;20041;-74
2022/12/14 05:37:44;;;;;;;44.40;20.07;;;;;;;1.31;54.31;100478.78;5074061;28;20124;-76
2022/12/14 05:40:10;;;;;;;44.00;19.40;;;;;;;1.23;54.53;100471.72;5074304;28;20032;-76
2022/12/14 05:42:36;;;;;;;47.80;20.23;;;;;;;1.36;53.81;100469.31;5073112;28;20025;-75
2022/12/14 05:45:02;;;;;;;41.43;18.03;;;;;;;1.17;54.91;100468.94;5072528;28;20032;-75
2022/12/14 05:47:46;;;;;;;40.13;19.03;;;;;;;1.14;54.49;100462.16;5072578;28;20044;-76
2022/12/14 05:50:11;;;;;;;45.63;20.77;;;;;;;1.17;54.54;100468.94;5072037;28;20049;-75
2022/12/14 05:52:37;;;;;;;44.03;19.23;;;;;;;1.16;54.78;100467.31;5073100;28;20045;-76
2022/12/14 05:55:03;;;;;;;40.43;18.87;;;;;;;1.13;54.85;100465.81;5073588;28;20055;-74
2022/12/14 05:57:29;;;;;;;38.53;19.93;;;;;;;1.27;54.81;100464.25;5065616;28;20044;-76
2022/12/14 05:59:55;;;;;;;54.60;21.17;;;;;;;1.18;54.71;100463.47;5073029;28;20119;-73
2022/12/14 06:02:20;;;;;;;41.00;20.07;;;;;;;1.07;55.31;100468.34;5067261;28;20123;-75
2022/12/14 06:04:45;;;;;;;50.37;21.33;;;;;;;0.92;55.36;100456.84;5076444;28;20036;-76
2022/12/14 06:07:11;;;;;;;45.60;19.27;;;;;;;1.12;54.72;100460.72;5072644;28;20047;-75
2022/12/14 06:09:37;;;;;;;38.27;18.17;;;;;;;1.08;54.97;100462.06;5069216;28;20063;-75
2022/12/14 06:12:02;;;;;;;39.67;17.43;;;;;;;1.04;55.23;100455.47;5076625;28;20055;-74
2022/12/14 06:14:28;;;;;;;44.40;19.77;;;;;;;1.14;54.93;100456.88;5069026;28;20109;-74
2022/12/14 06:16:53;;;;;;;40.03;18.70;;;;;;;1.20;55.06;100460.69;5075610;28;20041;-76
2022/12/14 06:19:19;;;;;;;42.60;19.63;;;;;;;1.18;54.66;100455.53;5076460;28;20036;-73
2022/12/14 06:21:44;;;;;;;43.47;19.10;;;;;;;1.26;54.71;100455.50;5075156;28;20044;-74
2022/12/14 06:24:11;;;;;;;45.00;20.13;;;;;;;1.33;54.94;100447.69;5076398;28;20093;-76
2022/12/14 06:26:40;;;;;;;45.07;20.00;;;;;;;1.27;54.46;100451.84;5075579;28;20036;-76
2022/12/14 06:29:07;;;;;;;39.27;19.13;;;;;;;1.34;54.70;100442.22;5074839;28;20036;-75
2022/12/14 06:31:33;;;;;;;43.83;18.60;;;;;;;1.04;55.44;100444.88;5076106;28;20033;-76
2022/12/14 06:34:01;;;;;;;42.07;18.67;;;;;;;1.36;54.80;100448.16;5076698;28;20016;-75
2022/12/14 06:36:29;;;;;;;37.80;17.50;;;;;;;1.38;54.28;100445.31;5076385;28;20118;-76
2022/12/14 06:38:58;;;;;;;39.20;18.20;;;;;;;1.27;54.05;100446.56;5076077;28;20048;-74
2022/12/14 06:41:24;;;;;;;41.43;19.70;;;;;;;1.19;54.43;100446.63;5073542;28;20045;-75
2022/12/14 06:43:50;;;;;;;39.63;19.23;;;;;;;1.06;55.13;100449.00;5073454;28;20044;-74
2022/12/14 06:46:18;;;;;;;40.73;18.17;;;;;;;0.98;54.72;100451.69;5072856;28;20040;-75
2022/12/14 06:48:48;;;;;;;39.60;19.53;;;;;;;1.14;54.67;100450.78;5065320;28;20048;-76
2022/12/14 06:51:14;;;;;;;36.72;18.05;;;;;;;1.11;55.12;100451.13;5075661;28;20036;-77
2022/12/14 06:53:39;;;;;;;37.97;17.83;;;;;;;1.18;54.14;100449.44;5075951;28;20070;-75
2022/12/14 06:56:10;;;;;;;37.47;18.27;;;;;;;1.25;54.43;100445.91;5074151;28;20129;-75
2022/12/14 06:58:36;;;;;;;42.87;18.70;;;;;;;1.18;53.82;100444.16;5072005;28;20030;-75
2022/12/14 07:01:03;;;;;;;40.87;19.27;;;;;;;1.07;54.44;100441.88;5075953;28;20036;-75
2022/12/14 07:03:29;;;;;;;42.73;18.37;;;;;;;0.97;54.72;100444.75;5073225;28;20407;-76
2022/12/14 07:05:58;;;;;;;37.80;17.50;;;;;;;0.98;55.05;100441.13;5074240;28;20023;-74
2022/12/14 07:08:24;;;;;;;40.77;17.80;;;;;;;0.78;55.26;100451.28;5069667;28;20459;-75
2022/12/14 07:10:51;;;;;;;44.17;19.03;;;;;;;1.00;54.87;100446.22;5075192;28;20043;-75
2022/12/14 07:13:16;;;;;;;41.17;17.93;;;;;;;0.91;54.13;100448.06;5074652;28;20047;-76
2022/12/14 07:15:42;;;;;;;46.00;19.10;;;;;;;0.94;54.86;100446.91;5071914;28;20025;-75
2022/12/14 07:18:07;;;;;;;39.93;18.70;;;;;;;0.94;54.25;100444.28;5075122;28;20119;-76
2022/12/14 07:20:32;;;;;;;51.17;19.77;;;;;;;0.86;54.60;100439.84;5071347;28;20120;-75
2022/12/14 07:22:58;;;;;;;41.47;17.70;;;;;;;0.77;55.07;100436.41;5074946;28;20546;-75
2022/12/14 07:25:23;;;;;;;39.20;17.83;;;;;;;0.85;54.27;100444.31;5075025;28;20067;-75
2022/12/14 07:27:50;;;;;;;39.20;18.37;;;;;;;0.84;54.10;100436.56;5074812;28;20021;-74
2022/12/14 07:30:16;;;;;;;57.80;19.97;;;;;;;0.77;54.45;100446.16;5066390;28;20100;-75
2022/12/14 07:32:41;;;;;;;42.37;18.87;;;;;;;0.63;55.53;100439.78;5074767;28;20036;-77
2022/12/14 07:35:07;;;;;;;47.67;18.53;;;;;;;0.70;54.68;100437.28;5074534;28;20032;-76
2022/12/14 07:37:32;;;;;;;39.00;16.37;;;;;;;0.77;54.67;100439.06;5074680;28;20123;-75
2022/12/14 07:39:58;;;;;;;41.93;18.87;;;;;;;0.64;54.59;100449.38;5075240;28;20475;-77
2022/12/14 07:42:23;;;;;;;43.77;19.97;;;;;;;0.70;54.37;100446.03;5074619;28;20071;-76
2022/12/14 07:44:48;;;;;;;38.77;17.90;;;;;;;0.68;54.33;100450.66;5074954;28;20047;-75
2022/12/14 07:47:14;;;;;;;42.40;17.43;;;;;;;0.75;53.67;100451.63;5073749;28;20111;-76
2022/12/14 07:49:39;;;;;;;46.03;18.97;;;;;;;0.67;54.18;100446.38;5074830;28;20032;-76
2022/12/14 07:52:05;;;;;;;44.20;18.30;;;;;;;0.58;54.74;100446.56;5074507;28;20028;-78
2022/12/14 07:54:30;;;;;;;46.23;18.77;;;;;;;0.67;54.56;100453.47;5074422;28;20036;-76
2022/12/14 07:56:55;;;;;;;38.13;17.83;;;;;;;0.74;54.12;100463.22;5074819;28;20410;-76
2022/12/14 07:59:21;;;;;;;46.03;18.73;;;;;;;0.74;54.51;100459.72;5074545;28;20037;-78
2022/12/14 08:01:46;;;;;;;43.83;18.40;;;;;;;0.62;54.83;100459.28;5070588;28;20028;-76
2022/12/14 08:04:17;;;;;;;40.27;18.07;;;;;;;0.53;55.76;100464.78;5054608;28;20037;-76
2022/12/14 08:06:45;;;;;;;39.63;19.75;;;;;;;0.62;55.50;100463.72;5054529;28;20511;-76
2022/12/14 08:09:11;;;;;;;41.97;20.27;;;;;;;0.69;54.68;100460.25;5053519;28;20036;-75
2022/12/14 08:11:38;;;;;;;48.60;21.07;;;;;;;0.68;55.29;100455.13;5053291;28;20401;-76
2022/12/14 08:14:06;;;;;;;49.53;20.03;;;;;;;0.84;53.89;100450.59;5052564;28;20033;-76
2022/12/14 08:16:32;;;;;;;42.77;20.83;;;;;;;0.90;54.57;100447.25;5066841;28;20024;-76
2022/12/14 08:18:58;;;;;;;42.63;19.50;;;;;;;0.75;54.60;100448.97;5073414;28;20101;-77
2022/12/14 08:21:25;;;;;;;49.27;19.33;;;;;;;0.59;55.21;100461.44;5073725;28;20040;-76
2022/12/14 08:23:53;;;;;;;49.30;18.47;;;;;;;0.77;54.57;100451.44;5073773;28;20043;-77
2022/12/14 08:26:19;;;;;;;39.33;19.27;;;;;;;0.80;54.75;100449.31;5072321;28;20041;-74
2022/12/14 08:28:45;;;;;;;40.37;19.93;;;;;;;0.81;54.26;100453.59;5073605;28;20478;-77
2022/12/14 08:31:13;;;;;;;42.80;19.53;;;;;;;0.82;54.03;100439.38;5073987;28;20559;-73
2022/12/14 08:33:40;;;;;;;44.80;19.93;;;;;;;0.85;54.11;100444.31;5072728;28;20172;-75
2022/12/14 08:36:08;;;;;;;44.57;19.20;;;;;;;0.81;54.49;100440.34;5072511;28;20489;-76
2022/12/14 08:38:34;;;;;;;45.60;18.87;;;;;;;0.92;54.39;100447.09;5072578;28;20059;-75
2022/12/14 08:41:04;;;;;;;48.10;19.50;;;;;;;0.96;55.11;100444.94;5054982;28;20036;-75
2022/12/14 08:43:29;;;;;;;51.13;20.73;;;;;;;1.05;54.98;100451.81;5073295;28;20024;-75
2022/12/14 08:45:55;;;;;;;47.27;20.67;;;;;;;1.09;54.59;100456.59;5073847;28;20591;-74
2022/12/14 08:48:20;;;;;;;41.97;19.23;;;;;;;1.18;54.38;100458.19;5072617;28;20579;-74
2022/12/14 08:50:46;;;;;;;49.83;19.03;;;;;;;1.22;54.80;100456.84;5073236;28;20056;-75
2022/12/14 08:53:11;;;;;;;38.33;19.53;;;;;;;1.33;54.54;100459.09;5073244;28;20091;-75
2022/12/14 08:55:37;;;;;;;38.13;19.07;;;;;;;1.29;54.74;100462.25;5055026;28;20036;-75
2022/12/14 08:58:02;;;;;;;43.13;19.10;;;;;;;1.39;54.47;100457.56;5069494;28;20097;-73
2022/12/14 09:00:27;;;;;;;47.80;18.33;;;;;;;1.43;53.96;100462.34;5053250;28;20044;-76
2022/12/14 09:02:53;;;;;;;43.80;17.33;;;;;;;1.44;54.30;100460.50;5053025;28;20447;-74
2022/12/14 09:05:18;;;;;;;44.60;18.80;;;;;;;1.49;53.98;100461.66;5052409;28;20060;-74
2022/12/14 09:07:45;;;;;;;40.70;18.77;;;;;;;1.54;54.17;100474.34;5052565;28;20072;-73
2022/12/14 09:10:11;;;;;;;49.37;20.40;;;;;;;1.60;53.87;100465.69;5053464;28;20111;-75
2022/12/14 09:12:36;;;;;;;43.23;19.50;;;;;;;1.57;54.08;100458.91;5052898;28;20037;-75
2022/12/14 09:15:02;;;;;;;44.90;20.30;;;;;;;1.66;53.83;100471.13;5068952;28;20120;-76
2022/12/14 09:17:27;;;;;;;45.83;19.70;;;;;;;1.67;54.35;100466.66;5052180;28;20480;-74
2022/12/14 09:19:53;;;;;;;44.33;19.37;;;;;;;1.56;54.96;100462.56;5052376;28;20029;-73
2022/12/14 09:22:18;;;;;;;41.17;18.97;;;;;;;1.64;54.54;100467.00;5052999;28;20036;-74
2022/12/14 09:24:43;;;;;;;44.40;20.00;;;;;;;1.67;54.62;100471.94;5053069;28;20421;-75
2022/12/14 09:27:09;;;;;;;43.00;18.80;;;;;;;1.81;54.25;100471.16;5052182;28;20132;-73
2022/12/14 09:29:34;;;;;;;40.60;17.93;;;;;;;1.88;53.90;100458.03;5051757;28;20041;-76
2022/12/14 09:32:00;;;;;;;37.57;18.60;;;;;;;1.95;53.68;100453.66;5052031;28;20029;-76
2022/12/14 09:34:25;;;;;;;42.17;18.80;;;;;;;1.88;54.62;100452.72;5051891;28;20039;-77
2022/12/14 09:36:51;;;;;;;42.27;17.93;;;;;;;2.04;53.71;100464.03;5054297;28;20032;-74
2022/12/14 09:39:17;;;;;;;38.80;17.67;;;;;;;2.04;54.10;100465.84;5056031;28;20102;-74
2022/12/14 09:41:49;;;;;;;51.37;19.20;;;;;;;2.23;53.85;100460.84;5037623;28;20120;-75
2022/12/14 09:44:36;;;;;;;52.80;18.27;;;;;;;2.08;54.18;100462.66;5067434;28;20036;-74
2022/12/14 09:47:26;;;;;;;49.50;18.67;;;;;;;2.17;54.19;100464.22;5076223;28;20047;-74
2022/12/14 09:50:01;;;;;;;51.42;18.17;;;;;;;2.34;54.27;100463.03;5075744;28;20059;-75
2022/12/14 09:52:39;;;;;;;39.90;18.07;;;;;;;2.44;54.16;100460.94;5075978;28;20041;-73
2022/12/14 09:55:18;;;;;;;46.50;19.93;;;;;;;2.26;54.00;100457.81;5076570;28;20047;-74
2022/12/14 09:57:48;;;;;;;44.67;19.87;;;;;;;2.53;53.69;100461.69;5075825;28;20036;-75
2022/12/14 10:00:19;;;;;;;37.80;19.03;;;;;;;2.37;53.85;100461.88;5055853;28;20033;-75
2022/12/14 10:03:07;;;;;;;38.83;18.45;;;;;;;2.36;53.50;100465.53;5055888;28;20072;-74
2022/12/14 10:05:48;;;;;;;40.40;18.27;;;;;;;2.49;53.71;100458.59;5038283;28;20029;-76
2022/12/14 10:08:32;;;;;;;;;;;;;;;2.67;53.12;100455.59;5057331;28;20072;-73
2022/12/14 10:11:18;;;;;;;32.63;14.87;;;;;;;2.62;53.07;100455.28;5055568;28;20405;-75
2022/12/14 10:14:07;;;;;;;41.87;16.93;;;;;;;2.56;53.32;100448.88;5062197;28;20024;-74
2022/12/14 10:16:39;;;;;;;36.27;17.13;;;;;;;2.60;53.50;100455.47;5056918;28;20369;-75
2022/12/14 10:19:19;;;;;;;36.47;17.30;;;;;;;2.68;53.62;100452.72;5055951;28;20112;-74
2022/12/14 10:21:58;;;;;;;41.43;17.13;;;;;;;2.76;53.10;100443.84;5037239;28;20128;-75
2022/12/14 10:24:30;;;;;;;38.13;17.90;;;;;;;2.77;53.01;100448.16;5055544;28;20052;-75
2022/12/14 10:26:56;;;;;;;40.50;17.20;;;;;;;2.91;53.45;100438.53;5055551;28;20064;-77
2022/12/14 10:29:30;;;;;;;32.77;17.30;;;;;;;2.99;53.25;100441.09;5055203;28;20048;-75
2022/12/14 10:32:14;;;;;;;40.13;17.97;;;;;;;2.99;52.86;100446.41;5055595;28;20052;-75
2022/12/14 10:34:42;;;;;;;32.43;15.53;;;;;;;3.07;52.64;100447.09;5036742;28;20445;-76
2022/12/14 10:37:33;;;;;;;33.90;16.10;;;;;;;3.20;52.53;100438.47;5056100;28;20033;-76
2022/12/14 10:39:58;;;;;;;32.53;16.45;;;;;;;3.21;52.82;100434.78;5055490;28;20056;-75
2022/12/14 10:42:36;;;;;;;43.13;18.07;;;;;;;3.21;52.95;100429.47;5057215;28;20115;-77
2022/12/14 10:45:17;;;;;;;34.77;16.47;;;;;;;3.39;52.44;100425.41;5075081;28;20085;-74
2022/12/14 10:47:47;;;;;;;;;;;;;;;3.51;52.55;100417.75;5074764;28;20037;-74
2022/12/14 10:51:03;;;;;;;38.67;17.23;;;;;;;3.65;52.20;100416.88;5073606;28;19916;-76
2022/12/14 10:53:40;;;;;;;40.00;17.07;;;;;;;3.73;52.65;100422.06;5055037;28;20120;-76
2022/12/14 10:56:12;;;;;;;41.17;18.30;;;;;;;3.42;53.71;100419.69;5055035;28;20095;-75
2022/12/14 10:58:38;;;;;;;52.53;18.50;;;;;;;3.91;51.53;100427.69;5054618;28;20025;-74
2022/12/14 11:01:03;;;;;;;36.10;16.27;;;;;;;3.83;51.95;100411.09;5055953;28;20076;-76
2022/12/14 11:03:29;;;;;;;34.70;17.33;;;;;;;3.47;52.54;100416.50;5055135;28;20037;-76
2022/12/14 11:05:59;;;;;;;39.30;16.57;;;;;;;3.92;51.66;100420.56;5054449;28;20040;-76
2022/12/14 11:08:44;;;;;;;33.90;16.48;;;;;;;4.14;50.96;100409.69;5055459;28;20049;-74
2022/12/14 11:11:15;;;;;;;31.17;14.87;;;;;;;4.15;50.84;100411.34;5036437;28;20029;-74
2022/12/14 11:13:47;;;;;;;39.13;17.73;;;;;;;4.12;50.62;100406.41;5060681;28;20037;-72
2022/12/14 11:16:38;;;;;;;29.20;15.90;;;;;;;4.06;51.83;100409.00;5064437;28;20470;-76
2022/12/14 11:19:13;;;;;;;36.90;16.35;;;;;;;4.02;50.73;100405.94;5054115;28;20041;-74
2022/12/14 11:21:39;;;;;;;33.50;16.20;;;;;;;3.15;54.20;100406.34;5054130;28;20055;-73
2022/12/14 11:24:05;;;;;;;41.40;17.13;;;;;;;4.02;51.90;100400.63;5054301;28;20041;-77
2022/12/14 11:26:41;;;;;;;40.07;17.73;;;;;;;4.18;51.71;100402.97;5054167;28;20041;-76
2022/12/14 11:29:21;;;;;;;32.53;16.63;;;;;;;4.13;52.03;100397.41;5053874;28;20044;-74
2022/12/14 11:31:51;;;;;;;37.70;17.73;;;;;;;4.42;51.69;100397.19;5065038;28;20040;-75
2022/12/14 11:34:56;;;;;;;32.60;16.50;;;;;;;4.40;51.29;100393.09;5076494;28;20075;-77
2022/12/14 11:37:24;;;;;;;36.10;16.23;;;;;;;4.52;50.80;100396.00;5073159;28;20448;-76
2022/12/14 11:39:53;;;;;;;34.20;14.97;;;;;;;4.47;50.66;100393.94;5056507;28;20034;-76
2022/12/14 11:42:20;;;;;;;33.20;16.33;;;;;;;4.57;49.80;100388.25;5073576;28;20036;-75
2022/12/14 11:44:47;;;;;;;36.87;17.23;;;;;;;4.53;50.90;100384.34;5074199;28;20491;-75
2022/12/14 11:47:30;;;;;;;37.30;15.70;;;;;;;4.53;50.35;100389.66;5073720;28;20029;-77